Time;durP1;ratioP1;P1;durP2;ratioP2;P2;SDS_P1;SDS_P2;PMS_P1;PMS_P2;Temp;Humidity;BMP_temperature;BMP_pressure;BME280_temperature;BME280_humidity;BME280_pressure;Samples;Min_cycle;Max_cycle;Signal;HPM_P1;HPM_P2
2023/01/24 00:00:39;;;;;;;;;;;19.80;41.70;;;;;;6072234;29;19924;-61
2023/01/24 00:03:40;;;;;;;;;;;19.40;41.50;;;;;;6069855;29;19924;-61
2023/01/24 00:06:41;;;;;;;;;;;19.70;41.60;;;;;;6069924;29;19924;-61
2023/01/24 00:09:43;;;;;;;;;;;19.50;41.50;;;;;;6070961;29;20300;-61
2023/01/24 00:12:44;;;;;;;;;;;19.50;41.50;;;;;;6064939;29;20011;-60
2023/01/24 00:15:46;;;;;;;;;;;19.70;41.60;;;;;;6064605;29;19930;-60
2023/01/24 00:18:48;;;;;;;;;;;19.80;41.70;;;;;;6063635;29;19924;-60
2023/01/24 00:21:49;;;;;;;;;;;19.50;41.30;;;;;;6065976;29;19930;-60
2023/01/24 00:24:51;;;;;;;;;;;19.70;41.70;;;;;;6065533;29;19924;-60
2023/01/24 00:27:52;;;;;;;;;;;19.80;41.60;;;;;;6067970;29;20400;-59
2023/01/24 00:30:54;;;;;;;;;;;19.80;41.60;;;;;;6065830;29;19927;-59
2023/01/24 00:33:55;;;;;;;;;;;19.50;41.60;;;;;;6065057;29;19924;-59
2023/01/24 00:36:57;;;;;;;;;;;19.30;41.50;;;;;;6069574;29;19923;-60
2023/01/24 00:39:58;;;;;;;;;;;19.70;41.40;;;;;;6068225;29;19927;-60
2023/01/24 00:43:01;;;;;;;;;;;19.50;41.50;;;;;;6069354;29;20398;-59
2023/01/24 00:46:04;;;;;;;;;;;19.30;41.40;;;;;;6061239;29;19923;-60
2023/01/24 00:49:06;;;;;;;;;;;19.50;41.40;;;;;;6067693;29;20340;-59
2023/01/24 00:52:07;;;;;;;;;;;19.70;41.70;;;;;;6069090;29;20242;-60
2023/01/24 00:55:11;;;;;;;;;;;19.90;41.80;;;;;;6071632;29;19948;-59
2023/01/24 00:58:12;;;;;;;;;;;19.40;41.50;;;;;;6071602;29;19972;-60
2023/01/24 01:01:14;;;;;;;;;;;19.60;41.50;;;;;;6056225;29;19935;-59
2023/01/24 01:04:15;;;;;;;;;;;19.80;41.90;;;;;;6077564;29;19976;-59
2023/01/24 01:07:17;;;;;;;;;;;19.20;41.50;;;;;;6072440;29;20400;-59
2023/01/24 01:10:19;;;;;;;;;;;19.60;41.50;;;;;;6071997;29;19931;-59
2023/01/24 01:13:20;;;;;;;;;;;19.30;41.40;;;;;;6071979;29;19924;-59
2023/01/24 01:16:22;;;;;;;;;;;19.70;41.80;;;;;;6072080;29;19931;-59
2023/01/24 01:19:23;;;;;;;;;;;19.70;41.60;;;;;;6072606;29;19923;-59
2023/01/24 01:22:25;;;;;;;;;;;19.70;42.40;;;;;;6074742;29;19927;-59
2023/01/24 01:25:27;;;;;;;;;;;20.10;41.80;;;;;;6051454;29;19935;-59
2023/01/24 01:28:28;;;;;;;;;;;19.70;41.70;;;;;;6067214;29;19924;-59
2023/01/24 01:31:30;;;;;;;;;;;19.40;41.60;;;;;;6071146;29;19931;-60
2023/01/24 01:34:31;;;;;;;;;;;19.60;41.70;;;;;;6070179;29;19931;-59
2023/01/24 01:37:32;;;;;;;;;;;19.40;41.50;;;;;;6068613;29;19923;-60
2023/01/24 01:40:35;;;;;;;;;;;19.40;41.60;;;;;;6068452;29;19924;-59
2023/01/24 01:44:37;;;;;;;;;;;20.00;41.80;;;;;;6064280;29;19924;-60
2023/01/24 01:46:58;;;;;;;;;;;19.30;41.60;;;;;;6053515;29;19923;-60
2023/01/24 01:50:03;;;;;;;;;;;19.30;41.60;;;;;;6068892;29;20427;-59
2023/01/24 01:53:05;;;;;;;;;;;19.40;41.50;;;;;;6052655;29;20297;-60
2023/01/24 01:56:10;;;;;;;;;;;19.10;41.50;;;;;;6067964;29;19924;-59
2023/01/24 01:59:13;;;;;;;;;;;19.70;41.70;;;;;;6065071;29;19924;-59
2023/01/24 02:02:17;;;;;;;;;;;19.20;41.30;;;;;;6068553;29;19931;-59
2023/01/24 02:05:20;;;;;;;;;;;19.50;41.50;;;;;;6068514;29;19939;-60
2023/01/24 02:08:22;;;;;;;;;;;19.60;41.40;;;;;;6068352;29;19923;-59
2023/01/24 02:17:55;;;;;;;;;;;19.20;41.20;;;;;;6054038;29;19912;-56
2023/01/24 02:20:57;;;;;;;;;;;19.30;41.40;;;;;;6068354;29;20016;-56
2023/01/24 02:24:01;;;;;;;;;;;19.30;41.30;;;;;;6068058;29;19928;-56
2023/01/24 02:27:03;;;;;;;;;;;19.30;41.20;;;;;;6068285;29;19907;-57
2023/01/24 02:30:05;;;;;;;;;;;19.20;41.30;;;;;;6067320;29;19974;-57
2023/01/24 02:33:11;;;;;;;;;;;20.00;41.60;;;;;;6065656;29;19931;-56
2023/01/24 02:36:17;;;;;;;;;;;19.80;41.50;;;;;;6044180;29;19924;-57
2023/01/24 02:39:22;;;;;;;;;;;19.50;41.20;;;;;;6066060;29;19926;-57
2023/01/24 02:42:26;;;;;;;;;;;19.30;41.20;;;;;;6051258;29;19912;-57
2023/01/24 02:45:30;;;;;;;;;;;19.20;41.20;;;;;;6050309;29;19915;-57
2023/01/24 02:48:31;;;;;;;;;;;19.30;41.10;;;;;;6067535;29;19976;-57
2023/01/24 02:54:49;;;;;;;;;;;19.30;41.20;;;;;;6049080;29;19928;-57
2023/01/24 03:01:09;;;;;;;;;;;19.30;41.20;;;;;;6039733;29;19935;-57
2023/01/24 03:04:11;;;;;;;;;;;19.20;41.30;;;;;;6056824;29;20003;-56
2023/01/24 03:07:13;;;;;;;;;;;19.40;41.50;;;;;;6057694;29;19939;-57
2023/01/24 03:10:19;;;;;;;;;;;19.30;41.30;;;;;;6054887;29;19924;-57
2023/01/24 03:36:19;;;;;;;;;;;19.40;41.20;;;;;;6058428;29;19924;-57
2023/01/24 03:42:46;;;;;;;;;;;19.80;41.60;;;;;;6057864;29;19999;-57
2023/01/24 03:45:52;;;;;;;;;;;19.10;41.10;;;;;;6058398;29;19989;-57
2023/01/24 03:49:04;;;;;;;;;;;19.40;41.40;;;;;;6043386;29;19925;-57
2023/01/24 03:55:26;;;;;;;;;;;19.70;41.40;;;;;;6043507;29;19931;-57
2023/01/24 03:58:28;;;;;;;;;;;19.10;41.30;;;;;;6059257;29;19935;-57
2023/01/24 04:01:30;;;;;;;;;;;19.30;41.20;;;;;;6042076;29;19931;-56
2023/01/24 04:07:55;;;;;;;;;;;19.20;41.20;;;;;;6057257;29;19924;-57
2023/01/24 04:10:57;;;;;;;;;;;19.50;41.30;;;;;;6063103;29;19923;-57
2023/01/24 04:13:59;;;;;;;;;;;19.10;41.40;;;;;;6062296;29;19920;-57
2023/01/24 04:17:01;;;;;;;;;;;19.20;41.40;;;;;;6062582;29;19924;-57
2023/01/24 04:20:11;;;;;;;;;;;19.80;41.60;;;;;;6039328;29;19924;-57
2023/01/24 04:23:13;;;;;;;;;;;19.20;41.20;;;;;;6019084;29;19945;-58
2023/01/24 04:26:15;;;;;;;;;;;19.20;41.40;;;;;;6035972;29;20015;-57
2023/01/24 04:29:16;;;;;;;;;;;19.10;41.30;;;;;;6035440;29;19967;-57
2023/01/24 04:32:20;;;;;;;;;;;19.20;41.40;;;;;;6035389;29;19924;-58
2023/01/24 04:35:30;;;;;;;;;;;19.30;41.30;;;;;;6035682;29;19924;-57
2023/01/24 04:38:34;;;;;;;;;;;19.70;41.70;;;;;;6035081;29;19931;-57
2023/01/24 04:41:40;;;;;;;;;;;19.20;41.50;;;;;;6035033;29;20396;-57
2023/01/24 04:44:41;;;;;;;;;;;19.60;41.60;;;;;;6035277;29;20384;-58
2023/01/24 04:47:45;;;;;;;;;;;19.40;41.40;;;;;;6034971;29;20007;-57
2023/01/24 04:50:48;;;;;;;;;;;19.40;41.40;;;;;;6034910;29;20411;-57
2023/01/24 04:53:51;;;;;;;;;;;19.10;41.40;;;;;;6035231;29;19940;-57
2023/01/24 04:56:57;;;;;;;;;;;19.10;41.30;;;;;;6034930;29;19931;-57
2023/01/24 04:59:58;;;;;;;;;;;19.30;41.60;;;;;;6018689;29;19924;-57
2023/01/24 05:03:00;;;;;;;;;;;19.10;41.40;;;;;;6035006;29;19924;-57
2023/01/24 05:06:03;;;;;;;;;;;19.10;41.20;;;;;;6034856;29;19944;-57
2023/01/24 05:09:05;;;;;;;;;;;20.10;41.70;;;;;;6034660;29;20027;-57
2023/01/24 05:12:19;;;;;;;;;;;19.30;41.30;;;;;;6035300;29;19928;-57
2023/01/24 05:15:22;;;;;;;;;;;19.20;41.30;;;;;;6034649;29;20304;-57
2023/01/24 05:18:25;;;;;;;;;;;19.50;41.40;;;;;;6034624;29;19971;-57
2023/01/24 05:21:27;;;;;;;;;;;19.20;41.30;;;;;;6034726;29;19924;-57
2023/01/24 05:24:28;;;;;;;;;;;19.50;41.50;;;;;;6033994;29;20376;-57
2023/01/24 05:27:30;;;;;;;;;;;19.90;41.70;;;;;;6034388;29;19931;-57
2023/01/24 05:30:36;;;;;;;;;;;19.30;41.40;;;;;;6034420;29;20284;-57
2023/01/24 05:33:48;;;;;;;;;;;19.30;42.10;;;;;;6033434;29;20007;-57
2023/01/24 05:36:50;;;;;;;;;;;19.30;41.40;;;;;;6034459;29;19924;-57
2023/01/24 05:39:52;;;;;;;;;;;19.50;41.50;;;;;;6034276;29;20341;-57
2023/01/24 05:42:53;;;;;;;;;;;19.20;41.50;;;;;;6034443;29;19947;-57
2023/01/24 05:45:57;;;;;;;;;;;19.60;41.60;;;;;;6034235;29;19924;-57
2023/01/24 05:48:59;;;;;;;;;;;19.10;41.10;;;;;;6034057;29;20289;-57
2023/01/24 05:52:01;;;;;;;;;;;19.20;41.30;;;;;;6034284;29;19931;-57
2023/01/24 05:55:19;;;;;;;;;;;19.70;41.60;;;;;;6033752;29;20304;-57
2023/01/24 05:58:24;;;;;;;;;;;19.90;41.80;;;;;;6033911;29;19959;-57
2023/01/24 06:01:31;;;;;;;;;;;19.60;41.40;;;;;;6018350;29;19924;-57
2023/01/24 06:04:33;;;;;;;;;;;19.10;41.40;;;;;;6033892;29;20353;-57
2023/01/24 06:07:35;;;;;;;;;;;19.30;41.50;;;;;;6033804;29;20024;-57
2023/01/24 06:10:36;;;;;;;;;;;20.00;41.80;;;;;;6033849;29;19986;-57
2023/01/24 06:13:40;;;;;;;;;;;19.20;41.30;;;;;;6033822;29;20057;-57
2023/01/24 06:16:43;;;;;;;;;;;19.60;41.50;;;;;;6017727;29;20479;-57
2023/01/24 06:19:45;;;;;;;;;;;19.10;41.20;;;;;;6033493;29;19930;-57
2023/01/24 06:22:51;;;;;;;;;;;19.80;41.70;;;;;;6033802;29;19923;-57
2023/01/24 06:25:53;;;;;;;;;;;19.30;41.30;;;;;;6033517;29;20039;-57
2023/01/24 06:28:54;;;;;;;;;;;19.60;41.40;;;;;;6016962;29;19963;-58
2023/01/24 06:32:03;;;;;;;;;;;19.30;41.40;;;;;;6033965;29;19981;-57
2023/01/24 06:35:11;;;;;;;;;;;19.60;41.30;;;;;;6033561;29;19931;-58
2023/01/24 06:38:18;;;;;;;;;;;19.50;41.40;;;;;;6033702;29;20313;-58
2023/01/24 06:41:19;;;;;;;;;;;19.80;41.60;;;;;;6033259;29;19967;-58
2023/01/24 06:44:21;;;;;;;;;;;19.00;41.30;;;;;;6035281;29;20011;-57
2023/01/24 06:47:25;;;;;;;;;;;19.90;41.70;;;;;;6037367;29;19963;-58
2023/01/24 06:50:31;;;;;;;;;;;19.00;41.30;;;;;;6037921;29;20010;-57
2023/01/24 06:53:32;;;;;;;;;;;19.60;41.60;;;;;;6036885;29;19924;-58
2023/01/24 06:56:33;;;;;;;;;;;19.30;41.50;;;;;;6037360;29;20352;-57
2023/01/24 06:59:36;;;;;;;;;;;19.50;41.60;;;;;;6037114;29;19924;-58
2023/01/24 07:02:37;;;;;;;;;;;19.10;41.30;;;;;;6036628;29;19931;-57
2023/01/24 07:05:39;;;;;;;;;;;20.10;41.80;;;;;;6036537;29;19924;-57
2023/01/24 07:08:40;;;;;;;;;;;19.10;41.30;;;;;;6037123;29;19924;-58
2023/01/24 07:11:42;;;;;;;;;;;19.80;41.70;;;;;;6036864;29;19959;-57
2023/01/24 07:14:43;;;;;;;;;;;19.40;41.40;;;;;;6036745;29;19976;-58
2023/01/24 07:17:45;;;;;;;;;;;20.00;41.80;;;;;;6037241;29;19958;-57
2023/01/24 07:20:47;;;;;;;;;;;19.30;41.30;;;;;;6037572;29;19931;-57
2023/01/24 07:23:55;;;;;;;;;;;19.60;41.50;;;;;;6036501;29;20385;-57
2023/01/24 07:26:58;;;;;;;;;;;19.20;41.20;;;;;;6037079;29;19931;-57
2023/01/24 07:30:00;;;;;;;;;;;19.80;41.40;;;;;;6037439;29;20304;-57
2023/01/24 07:33:01;;;;;;;;;;;19.20;40.80;;;;;;6038473;29;20373;-57
2023/01/24 07:36:10;;;;;;;;;;;20.10;41.50;;;;;;6038753;29;19924;-58
2023/01/24 07:39:12;;;;;;;;;;;19.30;40.90;;;;;;6038129;29;19924;-57
2023/01/24 07:42:14;;;;;;;;;;;20.10;41.40;;;;;;6039623;29;19931;-57
2023/01/24 07:45:15;;;;;;;;;;;19.30;40.70;;;;;;6036099;29;20450;-57
2023/01/24 07:48:16;;;;;;;;;;;19.80;41.60;;;;;;6036341;29;20373;-57
2023/01/24 07:51:18;;;;;;;;;;;19.90;41.00;;;;;;6036356;29;19927;-56
2023/01/24 07:54:21;;;;;;;;;;;19.60;41.00;;;;;;6034958;29;19931;-57
2023/01/24 07:57:22;;;;;;;;;;;19.40;40.70;;;;;;6035311;29;19924;-58
2023/01/24 08:00:23;;;;;;;;;;;20.20;41.40;;;;;;6036778;29;19928;-57
2023/01/24 08:03:25;;;;;;;;;;;19.60;40.90;;;;;;6036243;29;20011;-57
2023/01/24 08:06:27;;;;;;;;;;;19.90;40.80;;;;;;6036981;29;19924;-59
2023/01/24 08:09:29;;;;;;;;;;;19.40;40.70;;;;;;6034985;29;20311;-59
2023/01/24 08:12:30;;;;;;;;;;;20.00;38.00;;;;;;6034897;29;20022;-59
2023/01/24 08:15:31;;;;;;;;;;;19.60;40.70;;;;;;6035223;29;19924;-58
2023/01/24 08:18:35;;;;;;;;;;;19.90;40.90;;;;;;6034928;29;20389;-58
2023/01/24 08:21:39;;;;;;;;;;;19.50;40.60;;;;;;6034457;29;19924;-58
2023/01/24 08:24:40;;;;;;;;;;;20.40;41.20;;;;;;6034994;29;19932;-58
2023/01/24 08:27:42;;;;;;;;;;;19.90;39.90;;;;;;6034824;29;19924;-58
2023/01/24 08:30:43;;;;;;;;;;;20.30;41.00;;;;;;6034635;29;19924;-58
2023/01/24 08:33:46;;;;;;;;;;;19.70;40.70;;;;;;6035078;29;19924;-61
2023/01/24 08:36:48;;;;;;;;;;;20.10;40.60;;;;;;6034609;29;20050;-60
2023/01/24 08:39:49;;;;;;;;;;;19.50;40.50;;;;;;6034576;29;19955;-60
2023/01/24 08:42:51;;;;;;;;;;;20.50;40.90;;;;;;6034860;29;19970;-59
2023/01/24 08:45:53;;;;;;;;;;;19.80;40.40;;;;;;6034835;29;20368;-59
2023/01/24 08:48:55;;;;;;;;;;;20.10;40.50;;;;;;6034189;29;19959;-59
2023/01/24 08:51:58;;;;;;;;;;;20.10;40.60;;;;;;6034590;29;20464;-58
2023/01/24 08:55:00;;;;;;;;;;;19.90;40.60;;;;;;6017997;29;19927;-59
2023/01/24 08:58:01;;;;;;;;;;;20.10;40.50;;;;;;6034209;29;20334;-58
2023/01/24 09:01:05;;;;;;;;;;;20.40;40.70;;;;;;6034280;29;19952;-60
2023/01/24 09:04:07;;;;;;;;;;;19.90;40.40;;;;;;6033936;29;19923;-59
2023/01/24 09:07:11;;;;;;;;;;;20.40;40.70;;;;;;6017274;29;19924;-59
2023/01/24 09:10:12;;;;;;;;;;;20.30;40.70;;;;;;6034152;29;19930;-59
2023/01/24 09:13:13;;;;;;;;;;;20.60;41.00;;;;;;6034500;29;20376;-59
2023/01/24 09:16:15;;;;;;;;;;;19.70;40.20;;;;;;6017307;29;20373;-59
2023/01/24 09:19:16;;;;;;;;;;;20.20;40.80;;;;;;6034520;29;20034;-60
2023/01/24 09:22:18;;;;;;;;;;;20.10;40.30;;;;;;6034345;29;19947;-59
2023/01/24 09:25:22;;;;;;;;;;;20.10;40.60;;;;;;6033788;29;19971;-59
2023/01/24 09:28:24;;;;;;;;;;;20.20;40.60;;;;;;6034148;29;19932;-59
2023/01/24 09:31:25;;;;;;;;;;;20.60;40.90;;;;;;6034043;29;19931;-58
2023/01/24 09:34:26;;;;;;;;;;;19.90;40.30;;;;;;6034121;29;19924;-59
2023/01/24 09:37:28;;;;;;;;;;;20.60;41.00;;;;;;6034058;29;20262;-59
2023/01/24 09:40:34;;;;;;;;;;;20.10;40.60;;;;;;6033926;29;19928;-60
2023/01/24 09:43:45;;;;;;;;;;;20.30;40.80;;;;;;6034371;29;19931;-59
2023/01/24 09:46:48;;;;;;;;;;;20.20;40.60;;;;;;6034105;29;19967;-59
2023/01/24 09:49:52;;;;;;;;;;;20.30;40.40;;;;;;6033792;29;19928;-58
2023/01/24 09:52:55;;;;;;;;;;;19.70;40.30;;;;;;6033275;29;19932;-59
2023/01/24 09:55:58;;;;;;;;;;;20.40;40.80;;;;;;6033248;29;19924;-60
2023/01/24 09:59:10;;;;;;;;;;;20.00;40.30;;;;;;6033618;29;19955;-59
2023/01/24 10:02:15;;;;;;;;;;;20.50;40.60;;;;;;6033409;29;19924;-60
2023/01/24 10:05:17;;;;;;;;;;;19.80;40.30;;;;;;6018442;29;19925;-59
2023/01/24 10:08:25;;;;;;;;;;;20.50;40.60;;;;;;6033390;29;19927;-59
2023/01/24 10:11:32;;;;;;;;;;;20.20;40.50;;;;;;6016694;29;19924;-59
2023/01/24 10:14:42;;;;;;;;;;;20.50;40.70;;;;;;6033582;29;19931;-59
2023/01/24 10:17:52;;;;;;;;;;;20.30;40.50;;;;;;6033252;29;19924;-59
2023/01/24 10:21:00;;;;;;;;;;;20.70;40.70;;;;;;6036929;29;19924;-60
2023/01/24 10:24:04;;;;;;;;;;;20.00;40.40;;;;;;6037084;29;19924;-59
2023/01/24 10:27:13;;;;;;;;;;;20.00;40.40;;;;;;6049837;29;19915;-59
2023/01/24 10:30:16;;;;;;;;;;;20.10;40.40;;;;;;6611680;24;19922;-61
2023/01/24 10:33:18;;;;;;;;;;;20.20;40.70;;;;;;6325797;23;20846;-61
2023/01/24 10:36:24;;;;;;;;;;;20.60;41.30;;;;;;6027076;29;19925;-62
2023/01/24 10:39:27;;;;;;;;;;;20.90;40.90;;;;;;6165071;24;19912;-59
2023/01/24 10:56:20;;;;;;;;;;;20.30;38.00;;;;;;6732305;23;19908;-61
2023/01/24 10:59:22;;;;;;;;;;;20.40;38.10;;;;;;6732030;23;19922;-62
2023/01/24 11:13:46;;;;;;;;;;;20.70;38.00;;;;;;6022501;29;20381;-60
2023/01/24 11:16:48;;;;;;;;;;;21.00;41.10;;;;;;6019410;29;19925;-60
2023/01/24 11:19:57;;;;;;;;;;;19.90;40.40;;;;;;6027796;29;19952;-60
2023/01/24 11:23:03;;;;;;;;;;;20.60;40.70;;;;;;6030394;29;19931;-60
2023/01/24 11:26:05;;;;;;;;;;;20.00;40.30;;;;;;6014596;29;19992;-60
2023/01/24 11:29:15;;;;;;;;;;;20.80;40.80;;;;;;6017605;29;19924;-60
2023/01/24 11:32:25;;;;;;;;;;;20.20;40.70;;;;;;6015521;29;19924;-60
2023/01/24 11:35:29;;;;;;;;;;;20.90;40.70;;;;;;6020074;29;19924;-60
2023/01/24 11:38:33;;;;;;;;;;;20.00;40.40;;;;;;6026321;29;19931;-61
2023/01/24 11:41:39;;;;;;;;;;;20.40;40.50;;;;;;6005590;29;19924;-60
2023/01/24 11:44:55;;;;;;;;;;;20.40;40.60;;;;;;6021170;29;19924;-60
2023/01/24 11:48:03;;;;;;;;;;;20.50;40.30;;;;;;6013460;29;19973;-61
2023/01/24 11:51:09;;;;;;;;;;;20.30;40.40;;;;;;6014797;29;19981;-60
2023/01/24 11:54:22;;;;;;;;;;;20.70;40.50;;;;;;6018139;29;19924;-60
2023/01/24 11:57:30;;;;;;;;;;;20.30;40.40;;;;;;6027071;29;19924;-60
2023/01/24 12:00:35;;;;;;;;;;;20.70;40.60;;;;;;6018357;29;20360;-60
2023/01/24 12:03:45;;;;;;;;;;;20.20;40.30;;;;;;6019005;29;19925;-60
2023/01/24 12:06:49;;;;;;;;;;;20.50;40.40;;;;;;6019818;29;19932;-60
2023/01/24 12:09:54;;;;;;;;;;;20.50;40.50;;;;;;6031996;29;19932;-59
2023/01/24 12:13:03;;;;;;;;;;;20.70;40.50;;;;;;6024073;29;19925;-60
2023/01/24 12:16:13;;;;;;;;;;;20.20;40.40;;;;;;6018162;29;19944;-60
2023/01/24 12:19:27;;;;;;;;;;;20.50;40.40;;;;;;6031334;29;20015;-59
2023/01/24 12:22:29;;;;;;;;;;;20.10;40.00;;;;;;6754538;23;21187;-58
2023/01/24 12:32:28;;;;;;;;;;;20.40;37.70;;;;;;7033563;23;19912;-60
2023/01/24 12:35:32;;;;;;;;;;;20.80;39.00;;;;;;6664760;24;19912;-58
2023/01/24 12:38:36;;;;;;;;;;;20.70;37.50;;;;;;6566481;23;20330;-60
2023/01/24 12:41:37;;;;;;;;;;;20.60;40.20;;;;;;6061520;29;19923;-62
2023/01/24 12:44:42;;;;;;;;;;;20.90;40.30;;;;;;6061840;29;19924;-61
2023/01/24 12:47:47;;;;;;;;;;;20.70;40.20;;;;;;6056108;29;19928;-61
2023/01/24 12:50:52;;;;;;;;;;;20.90;40.40;;;;;;6061580;29;19931;-59
2023/01/24 12:53:58;;;;;;;;;;;20.30;39.70;;;;;;6064215;29;19924;-60
2023/01/24 12:57:02;;;;;;;;;;;20.70;38.30;;;;;;6069074;29;19948;-60
2023/01/24 13:00:09;;;;;;;;;;;20.40;39.90;;;;;;6077643;29;19924;-60
2023/01/24 13:03:22;;;;;;;;;;;21.00;40.20;;;;;;6076826;29;19927;-60
2023/01/24 13:06:29;;;;;;;;;;;20.40;39.70;;;;;;6064482;29;20372;-60
2023/01/24 13:09:35;;;;;;;;;;;21.30;40.20;;;;;;6063830;29;19935;-60
2023/01/24 13:12:36;;;;;;;;;;;20.80;39.90;;;;;;6065873;29;19924;-60
2023/01/24 13:15:41;;;;;;;;;;;21.10;40.10;;;;;;6279896;23;19922;-58
2023/01/24 13:18:48;;;;;;;;;;;20.60;40.20;;;;;;6053453;29;19944;-59
2023/01/24 13:21:52;;;;;;;;;;;20.80;38.50;;;;;;6046927;29;19908;-59
2023/01/24 13:25:01;;;;;;;;;;;20.30;39.80;;;;;;6058016;29;19924;-58
2023/01/24 13:28:07;;;;;;;;;;;21.10;40.20;;;;;;6054424;29;19923;-59
2023/01/24 13:31:13;;;;;;;;;;;20.40;39.80;;;;;;6049829;29;19924;-58
2023/01/24 13:34:16;;;;;;;;;;;21.00;40.10;;;;;;6049675;29;20011;-58
2023/01/24 13:37:20;;;;;;;;;;;21.30;40.30;;;;;;6046760;29;19931;-59
2023/01/24 13:40:23;;;;;;;;;;;21.10;40.10;;;;;;6045752;29;19931;-59
2023/01/24 13:43:42;;;;;;;;;;;20.40;39.80;;;;;;6029725;29;20368;-59
2023/01/24 13:46:58;;;;;;;;;;;21.10;37.20;;;;;;6053161;29;19923;-59
2023/01/24 13:50:10;;;;;;;;;;;20.50;39.70;;;;;;6049733;29;19972;-59
2023/01/24 13:53:24;;;;;;;;;;;21.40;40.10;;;;;;6038831;29;19992;-59
2023/01/24 13:56:27;;;;;;;;;;;20.50;39.90;;;;;;6050667;29;19924;-59
2023/01/24 13:59:31;;;;;;;;;;;21.00;37.20;;;;;;6046876;29;19924;-58
2023/01/24 14:02:39;;;;;;;;;;;21.00;37.10;;;;;;6049368;29;19930;-59
2023/01/24 14:05:45;;;;;;;;;;;21.00;37.20;;;;;;6048724;29;19924;-59
2023/01/24 14:08:56;;;;;;;;;;;20.40;39.60;;;;;;6047997;29;19928;-60
2023/01/24 14:12:03;;;;;;;;;;;21.10;40.10;;;;;;6045053;29;19976;-58
2023/01/24 14:15:05;;;;;;;;;;;20.90;39.90;;;;;;6054328;29;19950;-59
2023/01/24 14:18:37;;;;;;;;;;;21.20;40.00;;;;;;6055736;29;19924;-59
2023/01/24 14:21:47;;;;;;;;;;;20.80;39.80;;;;;;6042267;29;19912;-58
2023/01/24 14:24:51;;;;;;;;;;;21.10;39.90;;;;;;6056242;29;19924;-58
2023/01/24 14:27:55;;;;;;;;;;;20.60;39.60;;;;;;6038003;29;19924;-58
2023/01/24 14:30:57;;;;;;;;;;;20.90;39.90;;;;;;6039063;29;19924;-59
2023/01/24 14:34:04;;;;;;;;;;;20.60;39.70;;;;;;6037660;29;19931;-60
2023/01/24 14:37:08;;;;;;;;;;;21.40;40.00;;;;;;6031774;29;19924;-59
2023/01/24 14:40:11;;;;;;;;;;;20.70;39.60;;;;;;6029150;29;20306;-60
2023/01/24 14:43:13;;;;;;;;;;;21.50;40.20;;;;;;6053398;29;19932;-60
2023/01/24 14:46:19;;;;;;;;;;;20.70;39.50;;;;;;6060820;29;19952;-59
2023/01/24 14:49:25;;;;;;;;;;;21.30;40.00;;;;;;6040728;29;19928;-60
2023/01/24 14:52:27;;;;;;;;;;;20.80;39.80;;;;;;6043798;29;19940;-60
2023/01/24 14:55:30;;;;;;;;;;;21.00;39.90;;;;;;6173920;24;19924;-58
2023/01/24 14:58:32;;;;;;;;;;;20.80;37.10;;;;;;6071828;29;19974;-60
2023/01/24 15:01:35;;;;;;;;;;;21.30;40.10;;;;;;6150872;23;19924;-60
2023/01/24 15:04:44;;;;;;;;;;;21.10;36.80;;;;;;6053365;29;19924;-59
2023/01/24 15:07:46;;;;;;;;;;;21.10;39.70;;;;;;6230178;24;19931;-59
2023/01/24 15:10:52;;;;;;;;;;;21.00;39.40;;;;;;6083317;29;19947;-59
2023/01/24 15:13:56;;;;;;;;;;;21.60;40.00;;;;;;6065938;29;19923;-60
2023/01/24 15:16:59;;;;;;;;;;;20.80;39.60;;;;;;6113298;24;19928;-60
2023/01/24 15:20:07;;;;;;;;;;;21.00;40.00;;;;;;6041044;29;19912;-59
2023/01/24 15:23:16;;;;;;;;;;;21.10;39.60;;;;;;6184204;24;19933;-58
2023/01/24 15:26:22;;;;;;;;;;;21.10;36.90;;;;;;6646214;23;19928;-59
2023/01/24 15:29:38;;;;;;;;;;;20.90;39.80;;;;;;6048460;29;19912;-60
2023/01/24 15:32:41;;;;;;;;;;;21.20;39.90;;;;;;6049587;29;19930;-59
2023/01/24 15:35:45;;;;;;;;;;;20.50;39.50;;;;;;6038110;29;19923;-58
2023/01/24 15:53:40;;;;;;;;;;;21.00;40.10;;;;;;6086382;29;19923;-58
2023/01/24 15:56:42;;;;;;;;;;;21.40;40.00;;;;;;6092777;23;19924;-59
2023/01/24 16:03:18;;;;;;;;;;;20.80;36.90;;;;;;6122671;23;19932;-58
2023/01/24 16:06:20;;;;;;;;;;;21.20;37.50;;;;;;6058407;29;19924;-59
2023/01/24 16:12:53;;;;;;;;;;;21.10;37.10;;;;;;6083712;24;20041;-59
2023/01/24 16:15:54;;;;;;;;;;;21.20;36.90;;;;;;6065999;29;19924;-60
2023/01/24 16:18:55;;;;;;;;;;;21.00;39.40;;;;;;6058805;29;20332;-60
2023/01/24 16:21:57;;;;;;;;;;;21.20;40.00;;;;;;6070992;29;19923;-59
2023/01/24 16:24:59;;;;;;;;;;;21.10;39.90;;;;;;6082834;29;19932;-60
2023/01/24 16:31:23;;;;;;;;;;;20.80;36.90;;;;;;6233092;23;19915;-59
2023/01/24 16:34:25;;;;;;;;;;;21.10;38.60;;;;;;6050652;29;19924;-60
2023/01/24 16:37:26;;;;;;;;;;;21.60;40.10;;;;;;6047414;29;19931;-60
2023/01/24 16:40:28;;;;;;;;;;;20.80;39.70;;;;;;6058141;29;19954;-57
2023/01/24 16:43:29;;;;;;;;;;;21.40;40.20;;;;;;6042306;29;19924;-59
2023/01/24 16:46:32;;;;;;;;;;;20.60;39.50;;;;;;6048983;29;19920;-58
2023/01/24 16:49:33;;;;;;;;;;;20.90;39.70;;;;;;6046456;29;20381;-59
2023/01/24 16:52:35;;;;;;;;;;;20.80;39.50;;;;;;6041181;29;19928;-59
2023/01/24 16:55:37;;;;;;;;;;;21.50;40.30;;;;;;6050318;29;20042;-58
2023/01/24 16:58:39;;;;;;;;;;;20.70;39.60;;;;;;6107119;24;19923;-57
2023/01/24 17:01:41;;;;;;;;;;;21.20;37.10;;;;;;6081282;29;19935;-58
2023/01/24 17:04:42;;;;;;;;;;;21.10;39.50;;;;;;6063487;29;19995;-57
2023/01/24 17:07:47;;;;;;;;;;;21.80;40.30;;;;;;6073272;29;19923;-59
2023/01/24 17:10:48;;;;;;;;;;;20.90;39.80;;;;;;6071580;29;19907;-59
2023/01/24 17:13:50;;;;;;;;;;;21.70;40.30;;;;;;6080238;29;19947;-59
2023/01/24 17:16:51;;;;;;;;;;;20.80;39.50;;;;;;6082742;29;19914;-60
2023/01/24 17:19:53;;;;;;;;;;;21.70;40.40;;;;;;6085845;29;20304;-60
2023/01/24 17:22:55;;;;;;;;;;;20.60;39.80;;;;;;6081358;29;19923;-59
2023/01/24 17:26:00;;;;;;;;;;;20.80;39.80;;;;;;6075898;29;19924;-59
2023/01/24 17:29:02;;;;;;;;;;;21.00;39.80;;;;;;6072127;29;19928;-60
2023/01/24 17:32:04;;;;;;;;;;;21.30;40.10;;;;;;6055010;29;19908;-59
2023/01/24 17:35:06;;;;;;;;;;;20.50;39.80;;;;;;6082504;29;19987;-59
2023/01/24 17:38:09;;;;;;;;;;;21.30;40.00;;;;;;6175869;23;19928;-59
2023/01/24 17:41:11;;;;;;;;;;;21.00;40.00;;;;;;6059177;29;19953;-59
2023/01/24 17:44:16;;;;;;;;;;;21.10;40.00;;;;;;6107788;24;19908;-59
2023/01/24 17:47:17;;;;;;;;;;;21.10;39.00;;;;;;6082436;29;20034;-59
2023/01/24 17:50:19;;;;;;;;;;;21.40;40.50;;;;;;6077622;29;19949;-59
2023/01/24 17:53:20;;;;;;;;;;;20.60;40.00;;;;;;6077935;29;19928;-58
2023/01/24 17:56:22;;;;;;;;;;;21.20;40.50;;;;;;6086658;29;19949;-58
2023/01/24 17:59:23;;;;;;;;;;;20.70;40.20;;;;;;6082516;29;19948;-58
2023/01/24 18:02:25;;;;;;;;;;;21.40;40.70;;;;;;6080501;29;19924;-58
2023/01/24 18:05:26;;;;;;;;;;;20.60;40.20;;;;;;6081942;29;20444;-58
2023/01/24 18:08:28;;;;;;;;;;;21.30;40.70;;;;;;6076124;29;19924;-58
2023/01/24 18:11:29;;;;;;;;;;;20.90;40.40;;;;;;6078797;29;19928;-58
2023/01/24 18:14:32;;;;;;;;;;;21.00;40.50;;;;;;6078722;29;19924;-58
2023/01/24 18:17:34;;;;;;;;;;;20.90;40.50;;;;;;6078253;29;19923;-58
2023/01/24 18:20:37;;;;;;;;;;;20.70;40.50;;;;;;6078281;29;19931;-58
2023/01/24 18:23:39;;;;;;;;;;;20.30;40.10;;;;;;6078800;29;19924;-58
2023/01/24 18:26:40;;;;;;;;;;;20.90;40.50;;;;;;6079416;29;19935;-58
2023/01/24 18:29:42;;;;;;;;;;;20.50;40.40;;;;;;6079360;29;19923;-59
2023/01/24 18:32:43;;;;;;;;;;;20.90;40.70;;;;;;6079149;29;19947;-58
2023/01/24 18:35:44;;;;;;;;;;;20.20;40.30;;;;;;6078792;29;19931;-59
2023/01/24 18:38:46;;;;;;;;;;;20.60;40.60;;;;;;6079031;29;19912;-58
2023/01/24 18:41:48;;;;;;;;;;;20.20;40.40;;;;;;6082794;29;19930;-58
2023/01/24 18:44:49;;;;;;;;;;;20.70;40.70;;;;;;6081914;29;19924;-59
2023/01/24 18:47:51;;;;;;;;;;;20.50;40.40;;;;;;6081966;29;19924;-58
2023/01/24 18:50:52;;;;;;;;;;;21.00;40.80;;;;;;6082657;29;19907;-58
2023/01/24 18:53:54;;;;;;;;;;;20.30;40.60;;;;;;6081733;29;19923;-58
2023/01/24 18:56:56;;;;;;;;;;;20.90;41.00;;;;;;6081350;29;19923;-58
2023/01/24 18:59:58;;;;;;;;;;;20.50;38.60;;;;;;6081852;29;19999;-59
2023/01/24 19:02:59;;;;;;;;;;;20.80;41.00;;;;;;6082754;29;19931;-58
2023/01/24 19:06:00;;;;;;;;;;;20.20;40.50;;;;;;6081765;29;19923;-58
2023/01/24 19:09:03;;;;;;;;;;;21.00;41.10;;;;;;6081435;29;19923;-58
2023/01/24 19:12:06;;;;;;;;;;;20.50;40.90;;;;;;6080319;29;19923;-58
2023/01/24 19:15:08;;;;;;;;;;;20.60;40.50;;;;;;6079272;29;20009;-58
2023/01/24 19:18:09;;;;;;;;;;;20.30;40.60;;;;;;6077518;29;19928;-59
2023/01/24 19:21:11;;;;;;;;;;;20.70;41.10;;;;;;6074950;29;19924;-59
2023/01/24 19:24:13;;;;;;;;;;;20.60;40.90;;;;;;6073540;29;19930;-58
2023/01/24 19:27:15;;;;;;;;;;;20.50;40.90;;;;;;6072507;29;19924;-58
2023/01/24 19:30:17;;;;;;;;;;;20.20;40.70;;;;;;6069828;29;19931;-59